createdAt,value
2023-03-24T00:01:19.660Z,99.90
2023-03-24T00:03:49.098Z,99.90
2023-03-24T00:06:18.959Z,99.90
2023-03-24T00:08:48.555Z,99.90
2023-03-24T00:11:18.765Z,99.90
2023-03-24T00:13:47.330Z,99.90
2023-03-24T00:16:17.190Z,99.90
2023-03-24T00:18:50.343Z,99.90
2023-03-24T00:21:18.450Z,99.90
2023-03-24T00:23:49.456Z,99.90
2023-03-24T00:26:17.606Z,99.90
2023-03-24T00:28:47.343Z,99.90
2023-03-24T00:31:17.135Z,99.90
2023-03-24T00:33:52.213Z,99.90
2023-03-24T00:36:21.279Z,99.90
2023-03-24T00:38:48.686Z,99.90
2023-03-24T00:41:20.281Z,99.90
2023-03-24T00:43:48.995Z,99.90
2023-03-24T00:46:30.451Z,99.90
2023-03-24T00:49:05.644Z,99.90
2023-03-24T00:51:37.718Z,99.90
2023-03-24T00:54:06.320Z,99.90
2023-03-24T00:56:35.796Z,99.90
2023-03-24T00:59:05.377Z,99.90
2023-03-24T01:01:41.619Z,99.90
2023-03-24T01:04:10.197Z,99.90
2023-03-24T01:06:38.518Z,99.90
2023-03-24T01:09:06.432Z,99.90
2023-03-24T01:11:40.405Z,99.90
2023-03-24T01:14:08.795Z,99.90
2023-03-24T01:16:36.167Z,99.90
2023-03-24T01:19:04.154Z,99.90
2023-03-24T01:21:32.276Z,99.90
2023-03-24T01:23:59.650Z,99.90
2023-03-24T01:26:27.319Z,99.90
2023-03-24T01:28:54.589Z,99.90
2023-03-24T01:31:21.548Z,99.90
2023-03-24T01:33:49.058Z,99.90
2023-03-24T01:36:16.299Z,99.90
2023-03-24T01:38:44.300Z,99.90
2023-03-24T01:41:11.611Z,99.90
2023-03-24T01:43:38.763Z,99.90
2023-03-24T01:46:23.815Z,99.90
2023-03-24T01:48:56.444Z,99.90
2023-03-24T01:51:37.433Z,99.90
2023-03-24T01:54:36.830Z,99.90
2023-03-24T01:57:23.878Z,99.90
2023-03-24T01:59:55.861Z,99.90
2023-03-24T02:02:49.530Z,99.90
2023-03-24T02:05:28.479Z,99.90
2023-03-24T02:08:01.186Z,99.90
2023-03-24T02:10:32.759Z,99.90
2023-03-24T02:13:02.036Z,99.90
2023-03-24T02:15:32.023Z,99.90
2023-03-24T02:18:08.255Z,99.90
2023-03-24T02:20:54.623Z,99.90
2023-03-24T02:23:55.896Z,99.90
2023-03-24T02:26:40.262Z,99.90
2023-03-24T02:29:42.566Z,99.90
2023-03-24T02:32:33.862Z,99.90
2023-03-24T02:35:12.817Z,99.90
2023-03-24T02:38:17.369Z,99.90
2023-03-24T02:41:04.085Z,99.90
2023-03-24T02:43:37.322Z,99.90
2023-03-24T02:46:25.077Z,99.90
2023-03-24T02:49:10.795Z,99.90
2023-03-24T02:51:44.025Z,99.90
2023-03-24T02:54:14.233Z,99.90
2023-03-24T02:57:03.702Z,99.90
2023-03-24T03:00:14.856Z,99.90
2023-03-24T03:03:41.998Z,99.90
2023-03-24T03:06:34.028Z,99.90
2023-03-24T03:09:09.770Z,99.90
2023-03-24T03:11:47.610Z,99.90
2023-03-24T03:14:54.869Z,99.90
2023-03-24T03:17:30.620Z,99.90
2023-03-24T03:20:08.340Z,99.90
2023-03-24T03:22:56.827Z,99.90
2023-03-24T03:25:29.222Z,99.90
2023-03-24T03:28:01.084Z,99.90
2023-03-24T03:30:52.733Z,99.90
2023-03-24T03:33:25.445Z,99.90
2023-03-24T03:36:20.776Z,99.90
2023-03-24T03:39:55.531Z,99.90
2023-03-24T03:42:25.829Z,99.90
2023-03-24T03:44:53.809Z,99.90
2023-03-24T03:47:46.947Z,99.90
2023-03-24T03:50:14.249Z,99.90
2023-03-24T03:52:41.707Z,99.90
2023-03-24T03:55:35.475Z,99.90
2023-03-24T03:58:04.741Z,99.90
2023-03-24T04:00:45.485Z,99.90
2023-03-24T04:03:34.525Z,99.90
2023-03-24T04:06:21.542Z,99.90
2023-03-24T04:09:36.277Z,99.90
2023-03-24T04:12:04.690Z,99.90
2023-03-24T04:14:40.433Z,99.90
2023-03-24T04:17:54.268Z,99.90
2023-03-24T04:20:56.184Z,99.90
2023-03-24T04:23:28.586Z,99.90
2023-03-24T04:26:26.613Z,99.90
2023-03-24T04:29:00.636Z,99.90
2023-03-24T04:32:02.341Z,99.90
2023-03-24T04:34:41.984Z,99.90
2023-03-24T04:37:38.299Z,99.90
2023-03-24T04:40:15.510Z,99.90
2023-03-24T04:42:52.790Z,99.90
2023-03-24T04:45:26.674Z,99.90
2023-03-24T04:48:19.077Z,99.90
2023-03-24T04:50:59.059Z,99.90
2023-03-24T04:53:29.247Z,99.90
2023-03-24T04:56:07.542Z,99.90
2023-03-24T04:58:52.977Z,99.90
2023-03-24T05:01:23.104Z,99.90
2023-03-24T05:04:10.950Z,99.90
2023-03-24T05:06:38.180Z,99.90
2023-03-24T05:09:05.082Z,99.90
2023-03-24T05:11:32.867Z,99.90
2023-03-24T05:14:08.763Z,99.90
2023-03-24T05:16:39.010Z,99.90
2023-03-24T05:19:06.741Z,99.90
2023-03-24T05:21:34.805Z,99.90
2023-03-24T05:24:06.829Z,99.90
2023-03-24T05:26:35.952Z,99.90
2023-03-24T05:29:13.467Z,99.90
2023-03-24T05:31:44.728Z,99.90
2023-03-24T05:34:18.907Z,99.90
2023-03-24T05:36:55.056Z,99.90
2023-03-24T05:39:23.034Z,99.90
2023-03-24T05:41:59.985Z,99.90
2023-03-24T05:44:26.853Z,99.90
2023-03-24T05:47:16.155Z,99.90
2023-03-24T05:49:43.794Z,99.90
2023-03-24T05:52:11.473Z,99.90
2023-03-24T05:54:41.623Z,99.90
2023-03-24T05:57:16.835Z,99.90
2023-03-24T06:00:01.573Z,99.90
2023-03-24T06:02:55.120Z,99.90
2023-03-24T06:05:48.416Z,99.90
2023-03-24T06:08:17.300Z,99.90
2023-03-24T06:10:44.209Z,99.90
2023-03-24T06:13:18.228Z,99.90
2023-03-24T06:15:46.895Z,99.90
2023-03-24T06:18:34.330Z,99.90
2023-03-24T06:21:08.512Z,99.90
2023-03-24T06:23:38.313Z,99.90
2023-03-24T06:26:11.822Z,99.90
2023-03-24T06:29:04.881Z,99.90
2023-03-24T06:31:37.300Z,99.90
2023-03-24T06:34:08.902Z,99.90
2023-03-24T06:36:36.035Z,99.90
2023-03-24T06:39:07.661Z,99.90
2023-03-24T06:41:35.288Z,99.90
2023-03-24T06:44:05.697Z,99.90
2023-03-24T06:46:33.112Z,99.90
2023-03-24T06:49:03.801Z,99.90
2023-03-24T06:51:30.953Z,99.90
2023-03-24T06:54:00.443Z,99.90
2023-03-24T06:56:27.660Z,99.90
2023-03-24T06:59:01.476Z,99.90
2023-03-24T07:01:35.336Z,99.90
2023-03-24T07:04:19.562Z,99.90
2023-03-24T07:07:19.076Z,99.90
2023-03-24T07:09:46.288Z,99.90
2023-03-24T07:12:14.918Z,99.90
2023-03-24T07:14:44.900Z,99.90
2023-03-24T07:17:12.892Z,99.90
2023-03-24T07:19:46.723Z,99.90
2023-03-24T07:22:48.801Z,99.90
2023-03-24T07:25:44.864Z,99.90
2023-03-24T07:28:30.767Z,99.90
2023-03-24T07:31:00.532Z,99.90
2023-03-24T07:33:31.023Z,99.90
2023-03-24T07:35:57.981Z,99.90
2023-03-24T07:38:26.638Z,99.90
2023-03-24T07:40:59.485Z,99.90
2023-03-24T07:43:29.363Z,99.90
2023-03-24T07:45:58.629Z,99.90
2023-03-24T07:48:33.403Z,99.90
2023-03-24T07:51:00.724Z,99.90
2023-03-24T07:53:45.755Z,99.90
2023-03-24T07:56:19.895Z,99.90
2023-03-24T07:58:56.991Z,99.90
2023-03-24T08:01:30.397Z,99.90
2023-03-24T08:04:00.793Z,99.90
2023-03-24T08:06:58.683Z,99.90
2023-03-24T08:09:25.646Z,99.90
2023-03-24T08:11:58.925Z,99.90
2023-03-24T08:14:27.509Z,99.90
2023-03-24T08:16:54.869Z,99.90
2023-03-24T08:19:24.014Z,99.90
2023-03-24T08:21:51.003Z,99.90
2023-03-24T08:24:19.931Z,99.90
2023-03-24T08:26:52.891Z,99.90
2023-03-24T08:29:23.618Z,99.90
2023-03-24T08:31:50.548Z,99.90
2023-03-24T08:34:17.442Z,99.90
2023-03-24T08:36:44.452Z,99.90
2023-03-24T08:39:13.733Z,99.90
2023-03-24T08:41:40.816Z,99.90
2023-03-24T08:44:11.641Z,99.90
2023-03-24T08:46:42.388Z,99.90
2023-03-24T08:49:09.474Z,99.90
2023-03-24T08:51:36.449Z,99.90
2023-03-24T08:54:03.911Z,99.90
2023-03-24T08:56:35.577Z,99.90
2023-03-24T08:59:02.516Z,99.90
2023-03-24T09:01:30.085Z,99.90
2023-03-24T09:03:59.895Z,99.90
2023-03-24T09:06:27.432Z,99.90
2023-03-24T09:08:55.103Z,99.90
2023-03-24T09:11:24.881Z,99.90
2023-03-24T09:13:51.792Z,99.90
2023-03-24T09:16:23.318Z,99.90
2023-03-24T09:18:52.819Z,99.90
2023-03-24T09:21:22.212Z,99.90
2023-03-24T09:23:49.212Z,99.90
2023-03-24T09:26:16.214Z,99.90
2023-03-24T09:28:43.297Z,99.90
2023-03-24T09:31:11.701Z,99.90
2023-03-24T09:33:38.919Z,99.90
2023-03-24T09:36:06.507Z,99.90
2023-03-24T09:38:35.943Z,99.90
2023-03-24T09:41:04.442Z,99.90
2023-03-24T09:43:40.945Z,99.90
2023-03-24T09:46:15.739Z,99.90
2023-03-24T09:48:47.148Z,99.90
2023-03-24T09:51:25.022Z,99.90
2023-03-24T09:54:16.645Z,99.90
2023-03-24T09:56:49.998Z,99.90
2023-03-24T09:59:38.334Z,99.90
2023-03-24T10:02:12.682Z,99.90
2023-03-24T10:04:40.182Z,99.90
2023-03-24T10:07:06.960Z,99.90
2023-03-24T10:09:37.555Z,99.90
2023-03-24T10:12:23.093Z,99.90
2023-03-24T10:14:52.091Z,99.90
2023-03-24T10:17:39.977Z,99.90
2023-03-24T10:20:37.900Z,99.90
2023-03-24T10:23:43.888Z,99.90
2023-03-24T10:26:44.892Z,99.90
2023-03-24T10:29:34.240Z,99.90
2023-03-24T10:32:19.459Z,99.90
2023-03-24T10:35:10.420Z,99.90
2023-03-24T10:37:39.810Z,99.90
2023-03-24T10:40:24.158Z,99.90
2023-03-24T10:43:07.022Z,99.90
2023-03-24T10:45:40.786Z,99.90
2023-03-24T10:48:09.769Z,99.90
2023-03-24T10:50:45.596Z,99.90
2023-03-24T10:53:20.660Z,99.90
2023-03-24T10:55:50.751Z,99.90
2023-03-24T10:58:36.065Z,99.90
2023-03-24T11:01:10.176Z,99.90
2023-03-24T11:03:40.160Z,99.60
2023-03-24T11:06:08.083Z,99.50
2023-03-24T11:08:39.815Z,99.30
2023-03-24T11:11:34.527Z,99.30
2023-03-24T11:14:06.461Z,98.50
2023-03-24T11:16:42.420Z,98.10
2023-03-24T11:19:32.647Z,98.20
2023-03-24T11:22:09.776Z,97.50
2023-03-24T11:24:40.848Z,97.20
2023-03-24T11:27:17.098Z,97.20
2023-03-24T11:29:54.408Z,96.70
2023-03-24T11:32:36.150Z,97.10
2023-03-24T11:35:09.164Z,96.80
2023-03-24T11:37:40.057Z,96.40
2023-03-24T11:40:16.857Z,95.40
2023-03-24T11:43:00.651Z,95.70
2023-03-24T11:45:37.080Z,95.50
2023-03-24T11:48:25.078Z,95.30
2023-03-24T11:50:57.919Z,95.80
2023-03-24T11:53:40.391Z,95.60
2023-03-24T11:56:17.755Z,95.00
2023-03-24T11:58:56.674Z,95.50
2023-03-24T12:01:28.765Z,94.90
2023-03-24T12:04:15.853Z,95.20
2023-03-24T12:06:52.085Z,94.90
2023-03-24T12:09:48.309Z,95.70
2023-03-24T12:12:21.388Z,95.90
2023-03-24T12:15:20.726Z,95.30
2023-03-24T12:18:04.496Z,95.40
2023-03-24T12:20:49.522Z,95.00
2023-03-24T12:23:32.769Z,95.10
2023-03-24T12:26:21.329Z,94.60
2023-03-24T12:28:56.937Z,94.60
2023-03-24T12:31:36.019Z,94.70
2023-03-24T12:34:29.256Z,93.10
2023-03-24T12:37:19.615Z,92.80
2023-03-24T12:40:22.268Z,92.50
2023-03-24T12:43:01.787Z,92.40
2023-03-24T12:45:46.612Z,91.60
2023-03-24T12:48:44.627Z,91.20
2023-03-24T12:51:29.672Z,90.80
2023-03-24T12:54:21.768Z,91.60
2023-03-24T12:57:04.765Z,91.90
2023-03-24T13:00:10.933Z,91.40
2023-03-24T13:03:04.896Z,90.90
2023-03-24T13:05:35.808Z,91.50
2023-03-24T13:08:09.878Z,91.30
2023-03-24T13:10:40.564Z,91.90
2023-03-24T13:13:27.097Z,91.90
2023-03-24T13:15:58.662Z,92.10
2023-03-24T13:18:39.473Z,91.80
2023-03-24T13:21:11.915Z,91.30
